createdAt,value
2018-04-17T00:01:15.047Z,5.80
2018-04-17T00:03:43.269Z,5.80
2018-04-17T00:06:10.779Z,5.80
2018-04-17T00:08:39.102Z,5.70
2018-04-17T00:11:06.614Z,5.70
2018-04-17T00:13:34.834Z,5.90
2018-04-17T00:16:02.334Z,5.90
2018-04-17T00:18:29.797Z,5.90
2018-04-17T00:20:57.291Z,5.90
2018-04-17T00:23:24.762Z,5.90
2018-04-17T00:25:52.271Z,5.80
2018-04-17T00:28:19.739Z,5.70
2018-04-17T00:30:48.001Z,5.60
2018-04-17T00:33:15.457Z,5.60
2018-04-17T00:35:42.961Z,5.60
2018-04-17T00:38:10.421Z,5.50
2018-04-17T00:40:37.914Z,5.50
2018-04-17T00:43:05.371Z,5.40
2018-04-17T00:45:32.857Z,5.30
2018-04-17T00:48:01.100Z,5.30
2018-04-17T00:50:29.372Z,5.30
2018-04-17T00:52:56.826Z,5.20
2018-04-17T00:55:24.332Z,5.20
2018-04-17T00:57:52.576Z,5.20
2018-04-17T01:00:20.071Z,5.10
2018-04-17T01:02:48.304Z,5.10
2018-04-17T01:05:15.804Z,5.10
2018-04-17T01:07:44.025Z,5.00
2018-04-17T01:10:11.546Z,5.00
2018-04-17T01:12:39.017Z,5.00
2018-04-17T01:15:06.498Z,5.00
2018-04-17T01:17:34.034Z,5.00
2018-04-17T01:20:01.518Z,4.90
2018-04-17T01:22:29.748Z,4.90
2018-04-17T01:24:57.250Z,4.80
2018-04-17T01:27:24.746Z,4.90
2018-04-17T01:29:52.965Z,4.80
2018-04-17T01:32:20.464Z,4.80
2018-04-17T01:34:47.925Z,4.80
2018-04-17T01:37:15.430Z,4.70
2018-04-17T01:39:42.898Z,4.60
2018-04-17T01:42:10.409Z,4.60
2018-04-17T01:44:38.630Z,4.50
2018-04-17T01:47:06.124Z,4.50
2018-04-17T01:49:33.605Z,4.50
2018-04-17T01:52:01.865Z,4.40
2018-04-17T01:54:29.326Z,4.40
2018-04-17T01:56:56.827Z,4.40
2018-04-17T01:59:24.290Z,4.40
2018-04-17T02:01:51.796Z,4.30
2018-04-17T02:04:19.255Z,4.30
2018-04-17T02:06:46.754Z,4.30
2018-04-17T02:09:14.227Z,4.30
2018-04-17T02:11:41.722Z,4.30
2018-04-17T02:14:09.192Z,4.30
2018-04-17T02:16:36.656Z,4.20
2018-04-17T02:19:04.921Z,4.20
2018-04-17T02:21:32.396Z,4.10
2018-04-17T02:24:00.654Z,4.20
2018-04-17T02:26:28.117Z,4.10
2018-04-17T02:28:56.394Z,4.10
2018-04-17T02:31:24.646Z,4.10
2018-04-17T02:33:52.125Z,4.00
2018-04-17T02:36:19.590Z,4.00
2018-04-17T02:38:47.855Z,3.90
2018-04-17T02:41:15.330Z,3.90
2018-04-17T02:43:43.578Z,3.90
2018-04-17T02:46:11.057Z,3.90
2018-04-17T02:48:39.309Z,3.90
2018-04-17T02:51:06.784Z,3.90
2018-04-17T02:53:34.283Z,3.90
2018-04-17T02:56:01.739Z,3.80
2018-04-17T02:58:29.204Z,3.80
2018-04-17T03:00:56.822Z,3.70
2018-04-17T03:03:25.074Z,3.70
2018-04-17T03:05:52.556Z,3.70
2018-04-17T03:08:20.799Z,3.60
2018-04-17T03:10:48.291Z,3.60
2018-04-17T03:13:16.535Z,3.60
2018-04-17T03:15:44.022Z,3.60
2018-04-17T03:18:12.244Z,3.60
2018-04-17T03:20:39.741Z,3.60
2018-04-17T03:23:07.217Z,3.60
2018-04-17T03:25:35.491Z,3.50
2018-04-17T03:28:03.718Z,3.50
2018-04-17T03:30:31.229Z,3.50
2018-04-17T03:32:59.459Z,3.40
2018-04-17T03:35:26.933Z,3.40
2018-04-17T03:37:54.426Z,3.40
2018-04-17T03:40:22.686Z,3.40
2018-04-17T03:42:50.951Z,3.30
2018-04-17T03:45:18.428Z,3.30
2018-04-17T03:47:46.704Z,3.30
2018-04-17T03:50:14.947Z,3.30
2018-04-17T03:52:42.448Z,3.20
2018-04-17T03:55:09.901Z,3.20
2018-04-17T03:57:37.389Z,3.20
2018-04-17T04:00:04.889Z,3.20
2018-04-17T04:02:32.380Z,3.20
2018-04-17T04:04:59.868Z,3.20
2018-04-17T04:07:27.360Z,3.20
2018-04-17T04:09:54.814Z,3.10
2018-04-17T04:12:22.331Z,3.10
2018-04-17T04:14:49.831Z,3.10
2018-04-17T04:17:29.140Z,3.10
2018-04-17T04:20:08.555Z,3.10
2018-04-17T04:22:47.999Z,3.00
2018-04-17T04:25:28.050Z,3.00
2018-04-17T04:27:55.543Z,3.00
2018-04-17T04:30:23.005Z,3.00
2018-04-17T04:32:50.506Z,3.00
2018-04-17T04:35:17.973Z,3.00
2018-04-17T04:37:45.457Z,3.00
2018-04-17T04:40:12.964Z,3.00
2018-04-17T04:42:41.213Z,2.90
2018-04-17T04:45:08.746Z,2.90
2018-04-17T04:47:36.216Z,2.90
2018-04-17T04:50:03.720Z,2.90
2018-04-17T04:52:31.952Z,3.00
2018-04-17T04:54:59.460Z,2.90
2018-04-17T04:57:26.919Z,3.00
2018-04-17T04:59:54.413Z,2.90
2018-04-17T05:02:21.901Z,3.00
2018-04-17T05:04:49.411Z,3.00
2018-04-17T05:07:16.875Z,2.90
2018-04-17T05:09:44.377Z,3.00
2018-04-17T05:12:11.890Z,3.00
2018-04-17T05:14:39.385Z,3.00
2018-04-17T05:17:06.894Z,3.10
2018-04-17T05:19:34.367Z,3.10
2018-04-17T05:22:01.876Z,3.20
2018-04-17T05:24:30.114Z,3.30
2018-04-17T05:26:57.610Z,3.30
2018-04-17T05:29:25.880Z,3.50
2018-04-17T05:31:53.357Z,3.40
2018-04-17T05:34:21.630Z,3.60
2018-04-17T05:36:49.893Z,3.70
2018-04-17T05:39:18.130Z,3.70
2018-04-17T05:41:45.639Z,3.70
2018-04-17T05:44:13.877Z,3.90
2018-04-17T05:46:41.388Z,3.90
2018-04-17T05:49:08.879Z,4.00
2018-04-17T05:51:36.423Z,4.10
2018-04-17T05:54:03.890Z,4.20
2018-04-17T05:56:31.390Z,4.30
2018-04-17T05:58:58.857Z,4.40
2018-04-17T06:01:27.108Z,4.60
2018-04-17T06:03:54.627Z,4.50
2018-04-17T06:06:22.102Z,4.70
2018-04-17T06:08:49.594Z,4.80
2018-04-17T06:11:17.071Z,4.90
2018-04-17T06:13:44.630Z,5.00
2018-04-17T06:16:12.078Z,5.20
2018-04-17T06:18:40.346Z,5.40
2018-04-17T06:21:07.849Z,5.40
2018-04-17T06:23:35.379Z,5.60
2018-04-17T06:26:02.882Z,5.80
2018-04-17T06:28:30.377Z,6.00
2018-04-17T06:30:57.838Z,6.00
2018-04-17T06:33:26.146Z,6.30
2018-04-17T06:35:53.647Z,6.30
2018-04-17T06:38:21.157Z,6.40
2018-04-17T06:40:48.622Z,6.60
2018-04-17T06:43:16.126Z,6.70
2018-04-17T06:45:43.597Z,6.90
2018-04-17T06:48:11.170Z,7.00
2018-04-17T06:50:39.408Z,7.40
2018-04-17T06:53:06.891Z,7.40
2018-04-17T06:55:34.400Z,7.60
2018-04-17T06:58:01.871Z,7.80
2018-04-17T07:00:29.385Z,8.00
2018-04-17T07:02:57.614Z,8.40
2018-04-17T07:05:25.119Z,8.40
2018-04-17T07:07:53.351Z,9.00
2018-04-17T07:10:20.873Z,8.90
2018-04-17T07:12:48.354Z,9.30
2018-04-17T07:15:15.850Z,9.60
2018-04-17T07:17:43.324Z,9.90
2018-04-17T07:20:11.632Z,10.50
2018-04-17T07:22:39.106Z,10.50
2018-04-17T07:25:06.629Z,10.80
2018-04-17T07:27:34.136Z,11.20
2018-04-17T07:30:01.649Z,11.50
2018-04-17T07:32:29.173Z,11.80
2018-04-17T07:34:56.687Z,12.10
2018-04-17T07:37:24.196Z,12.50
2018-04-17T07:39:51.699Z,13.00
2018-04-17T07:42:19.174Z,13.50
2018-04-17T07:44:46.689Z,14.20
2018-04-17T07:47:23.910Z,15.90
2018-04-17T07:49:52.248Z,16.60
2018-04-17T07:52:20.503Z,17.00
2018-04-17T07:54:48.031Z,17.00
2018-04-17T07:57:15.497Z,17.30
2018-04-17T07:59:43.007Z,17.70
2018-04-17T08:02:11.296Z,19.00
2018-04-17T08:04:38.881Z,19.00
2018-04-17T08:07:06.354Z,19.30
2018-04-17T08:09:33.814Z,19.50
2018-04-17T08:12:01.312Z,19.80
2018-04-17T08:14:28.783Z,20.30
2018-04-17T08:16:56.318Z,20.90
2018-04-17T08:19:24.572Z,22.80
2018-04-17T08:21:52.090Z,22.70
2018-04-17T08:24:19.566Z,23.00
2018-04-17T08:26:47.075Z,22.80
2018-04-17T08:29:15.315Z,23.50
2018-04-17T08:31:42.823Z,23.50
2018-04-17T08:34:10.294Z,23.70
2018-04-17T08:36:37.784Z,23.90
2018-04-17T08:39:06.125Z,24.40
2018-04-17T08:41:33.630Z,24.90
2018-04-17T08:44:01.143Z,25.10
2018-04-17T08:46:28.634Z,24.80
2018-04-17T08:48:56.132Z,25.10
2018-04-17T08:51:24.398Z,25.90
2018-04-17T08:53:51.872Z,25.80
2018-04-17T08:56:19.395Z,26.00
2018-04-17T08:58:46.878Z,26.30
2018-04-17T09:01:15.192Z,28.40
2018-04-17T09:03:42.667Z,28.30
2018-04-17T09:06:10.184Z,29.00
2018-04-17T09:08:38.427Z,29.00
2018-04-17T09:11:05.999Z,29.00
2018-04-17T09:13:33.484Z,28.80
2018-04-17T09:16:00.992Z,29.10
2018-04-17T09:18:28.509Z,29.30
2018-04-17T09:20:56.006Z,30.00
2018-04-17T09:23:23.510Z,29.30
2018-04-17T09:25:50.996Z,29.10
2018-04-17T09:28:18.519Z,29.30
2018-04-17T09:30:46.769Z,30.60
2018-04-17T09:33:14.349Z,30.50
2018-04-17T09:35:41.793Z,31.00
2018-04-17T09:38:09.311Z,31.00
2018-04-17T09:40:36.798Z,30.40
2018-04-17T09:43:04.323Z,30.20
2018-04-17T09:45:31.855Z,30.10
2018-04-17T09:47:59.414Z,30.00
2018-04-17T09:50:26.874Z,29.70
2018-04-17T09:52:54.392Z,30.30
2018-04-17T09:55:21.885Z,30.40
2018-04-17T09:57:49.396Z,30.80
2018-04-17T10:00:16.877Z,30.70
2018-04-17T10:02:44.389Z,30.50
2018-04-17T10:05:11.871Z,29.80
2018-04-17T10:07:39.400Z,29.10
2018-04-17T10:10:06.884Z,28.90
2018-04-17T10:12:34.393Z,29.40
2018-04-17T10:15:01.898Z,30.10
2018-04-17T10:17:29.378Z,31.20
2018-04-17T10:19:56.913Z,32.20
2018-04-17T10:22:24.401Z,33.30
2018-04-17T10:24:52.686Z,32.80
2018-04-17T10:27:20.935Z,32.40
2018-04-17T10:29:48.462Z,32.40
2018-04-17T10:32:15.972Z,32.10
2018-04-17T10:34:43.482Z,32.50
2018-04-17T10:37:10.970Z,32.80
2018-04-17T10:39:38.484Z,32.80
2018-04-17T10:42:05.946Z,33.10
2018-04-17T10:44:33.477Z,31.90
2018-04-17T10:47:00.952Z,31.70
2018-04-17T10:49:28.462Z,31.90
2018-04-17T10:51:55.933Z,31.40
2018-04-17T10:54:23.438Z,31.30
2018-04-17T10:56:50.917Z,31.80
2018-04-17T10:59:18.440Z,32.70
2018-04-17T11:01:45.911Z,34.00
2018-04-17T11:04:13.441Z,35.10
2018-04-17T11:06:41.711Z,35.80
2018-04-17T11:09:09.955Z,36.20
2018-04-17T11:11:37.468Z,36.10
2018-04-17T11:14:04.960Z,36.40
2018-04-17T11:16:32.479Z,36.00
2018-04-17T11:18:59.948Z,36.00
2018-04-17T11:21:27.472Z,36.80
2018-04-17T11:23:55.775Z,37.10
2018-04-17T11:26:23.282Z,37.10
2018-04-17T11:28:50.768Z,36.80
2018-04-17T11:31:19.036Z,36.20
2018-04-17T11:33:46.759Z,36.20
2018-04-17T11:36:14.271Z,36.70
2018-04-17T11:38:41.747Z,36.60
2018-04-17T11:41:09.280Z,36.50
2018-04-17T11:43:36.748Z,36.30
2018-04-17T11:46:05.093Z,34.70
2018-04-17T11:48:32.566Z,34.70
2018-04-17T11:51:00.104Z,33.50
2018-04-17T11:53:27.575Z,34.50
2018-04-17T11:55:55.082Z,35.50
2018-04-17T11:58:22.603Z,36.40
2018-04-17T12:00:50.852Z,38.20
2018-04-17T12:03:18.392Z,38.20
2018-04-17T12:05:46.039Z,38.10
2018-04-17T12:08:13.550Z,38.30
2018-04-17T12:10:41.052Z,39.70
2018-04-17T12:13:08.555Z,40.20
2018-04-17T12:15:36.057Z,40.10
2018-04-17T12:18:03.558Z,40.10
2018-04-17T12:20:31.035Z,39.60
2018-04-17T12:22:58.533Z,40.00
2018-04-17T12:25:26.005Z,39.60
2018-04-17T12:27:53.535Z,39.00
2018-04-17T12:30:21.788Z,39.50
2018-04-17T12:32:49.318Z,39.50
2018-04-17T12:35:16.796Z,39.90
2018-04-17T12:37:44.275Z,39.10
2018-04-17T12:40:12.547Z,36.90
2018-04-17T12:42:40.036Z,36.90
2018-04-17T12:45:07.557Z,37.20
2018-04-17T12:47:35.030Z,36.40
2018-04-17T12:50:02.544Z,37.00
2018-04-17T12:52:30.070Z,37.30
2018-04-17T12:54:57.577Z,37.00
2018-04-17T12:57:25.065Z,37.50
2018-04-17T12:59:53.326Z,37.80
2018-04-17T13:02:20.790Z,37.80
2018-04-17T13:04:49.172Z,38.60
2018-04-17T13:07:17.419Z,38.90
2018-04-17T13:09:44.935Z,38.90
2018-04-17T13:12:12.411Z,39.10
2018-04-17T13:14:39.916Z,39.20
2018-04-17T13:17:08.173Z,40.80
2018-04-17T13:19:35.684Z,40.70
2018-04-17T13:22:03.175Z,41.70
2018-04-17T13:24:30.704Z,41.80
2018-04-17T13:26:58.185Z,40.60
2018-04-17T13:29:25.700Z,39.90
2018-04-17T13:31:53.963Z,40.30
2018-04-17T13:34:22.235Z,41.20
2018-04-17T13:36:49.705Z,41.20
2018-04-17T13:39:17.184Z,41.60
2018-04-17T13:41:44.693Z,41.10
2018-04-17T13:44:12.192Z,40.70
2018-04-17T13:46:39.712Z,39.80
2018-04-17T13:49:07.254Z,39.10
2018-04-17T13:51:34.757Z,38.00
2018-04-17T13:54:02.982Z,37.00
2018-04-17T13:56:30.478Z,36.90
2018-04-17T13:58:58.722Z,36.40
2018-04-17T14:01:26.232Z,36.30
2018-04-17T14:03:53.698Z,36.50
2018-04-17T14:06:21.230Z,35.90
2018-04-17T14:08:49.480Z,35.10
2018-04-17T14:11:16.967Z,35.10
2018-04-17T14:13:45.272Z,34.00
2018-04-17T14:16:12.761Z,33.90
2018-04-17T14:18:40.288Z,33.00
2018-04-17T14:21:07.804Z,32.10
2018-04-17T14:23:35.292Z,31.00
2018-04-17T14:26:02.811Z,30.00
2018-04-17T14:28:30.296Z,29.40
2018-04-17T14:30:58.567Z,29.40
2018-04-17T14:33:26.832Z,29.70
2018-04-17T14:35:54.979Z,29.70
2018-04-17T14:38:22.459Z,29.90
2018-04-17T14:40:49.981Z,29.90
2018-04-17T14:43:17.450Z,29.70
2018-04-17T14:45:44.965Z,29.40
2018-04-17T14:48:12.629Z,29.10
2018-04-17T14:50:40.156Z,29.10
2018-04-17T14:53:07.648Z,29.40
2018-04-17T14:55:35.156Z,29.20
2018-04-17T14:58:02.667Z,29.20
2018-04-17T15:00:30.151Z,28.90
2018-04-17T15:02:57.661Z,28.60
2018-04-17T15:05:25.886Z,27.80
2018-04-17T15:07:53.412Z,27.80
2018-04-17T15:10:20.894Z,27.60
2018-04-17T15:12:48.411Z,27.50
2018-04-17T15:15:15.948Z,27.20
2018-04-17T15:17:43.440Z,26.80
2018-04-17T15:20:11.707Z,26.50
2018-04-17T15:22:39.229Z,26.50
2018-04-17T15:25:06.698Z,26.40
2018-04-17T15:27:34.204Z,26.50
2018-04-17T15:30:01.681Z,26.60
2018-04-17T15:32:29.251Z,26.60
2018-04-17T15:34:56.759Z,26.20
2018-04-17T15:37:25.042Z,25.60
2018-04-17T15:39:52.571Z,25.60
2018-04-17T15:42:20.071Z,25.70
2018-04-17T15:44:47.564Z,25.70
2018-04-17T15:47:15.086Z,25.70
2018-04-17T15:49:42.589Z,25.80
2018-04-17T15:52:10.090Z,25.80
2018-04-17T15:54:37.631Z,25.70
2018-04-17T15:57:05.119Z,25.40
2018-04-17T15:59:32.617Z,25.20
2018-04-17T16:02:00.153Z,25.20
2018-04-17T16:04:27.672Z,25.10
2018-04-17T16:06:55.171Z,25.10
2018-04-17T16:09:22.674Z,25.00
2018-04-17T16:11:50.948Z,25.10
2018-04-17T16:14:18.463Z,25.00
2018-04-17T16:16:45.961Z,24.80
2018-04-17T16:19:13.467Z,24.90
2018-04-17T16:21:40.989Z,24.80
2018-04-17T16:24:08.504Z,24.80
2018-04-17T16:26:36.009Z,24.90
2018-04-17T16:29:04.274Z,24.60
2018-04-17T16:31:31.780Z,24.60
2018-04-17T16:33:59.310Z,24.40
2018-04-17T16:36:27.617Z,24.20
2018-04-17T16:38:55.127Z,24.20
2018-04-17T16:41:22.602Z,24.00
2018-04-17T16:43:50.890Z,24.00
2018-04-17T16:46:18.359Z,23.90
2018-04-17T16:48:45.873Z,23.80
2018-04-17T16:51:13.451Z,23.80
2018-04-17T16:53:41.855Z,23.50
2018-04-17T16:56:09.352Z,23.50
2018-04-17T16:58:37.699Z,23.30
2018-04-17T17:01:05.178Z,23.20
2018-04-17T17:03:32.677Z,23.10
2018-04-17T17:06:00.150Z,23.10
2018-04-17T17:08:28.455Z,23.10
2018-04-17T17:10:55.935Z,23.00
2018-04-17T17:13:23.421Z,23.00
2018-04-17T17:15:50.912Z,22.90
2018-04-17T17:18:18.399Z,22.80
2018-04-17T17:20:46.383Z,22.70
2018-04-17T17:23:13.900Z,22.60
2018-04-17T17:25:41.437Z,22.40
2018-04-17T17:28:09.707Z,22.10
2018-04-17T17:30:38.001Z,22.00
2018-04-17T17:33:06.241Z,21.90
2018-04-17T17:35:33.747Z,21.90
2018-04-17T17:38:01.538Z,21.80
2018-04-17T17:40:29.591Z,21.80
2018-04-17T17:42:57.083Z,21.70
2018-04-17T17:45:24.610Z,21.60
2018-04-17T17:47:52.075Z,21.50
2018-04-17T17:50:19.592Z,21.50
2018-04-17T17:52:47.865Z,21.50
2018-04-17T17:55:16.148Z,21.40
2018-04-17T17:57:43.634Z,21.40
2018-04-17T18:00:11.174Z,21.30
2018-04-17T18:02:38.664Z,21.20
2018-04-17T18:05:06.940Z,20.90
2018-04-17T18:07:34.463Z,20.90
2018-04-17T18:10:02.756Z,20.70
2018-04-17T18:12:30.251Z,20.70
2018-04-17T18:14:57.824Z,20.50
2018-04-17T18:17:25.317Z,20.40
2018-04-17T18:19:52.878Z,20.20
2018-04-17T18:22:20.370Z,20.10
2018-04-17T18:24:47.845Z,19.90
2018-04-17T18:27:15.396Z,19.70
2018-04-17T18:29:42.868Z,19.50
2018-04-17T18:32:10.363Z,19.30
2018-04-17T18:34:37.853Z,19.10
2018-04-17T18:37:05.378Z,18.90
2018-04-17T18:39:33.613Z,18.50
2018-04-17T18:42:01.113Z,18.40
2018-04-17T18:44:28.752Z,18.30
2018-04-17T18:46:56.331Z,18.10
2018-04-17T18:49:23.749Z,18.00
2018-04-17T18:51:51.261Z,17.80
2018-04-17T18:54:18.739Z,17.60
2018-04-17T18:56:46.246Z,17.40
2018-04-17T18:59:14.516Z,17.10
2018-04-17T19:01:42.053Z,17.00
2018-04-17T19:04:09.527Z,16.90
2018-04-17T19:06:37.042Z,16.80
2018-04-17T19:09:05.275Z,16.60
2018-04-17T19:11:33.543Z,16.30
2018-04-17T19:14:01.063Z,16.20
2018-04-17T19:16:28.606Z,16.10
2018-04-17T19:18:56.823Z,15.90
2018-04-17T19:21:24.542Z,15.90
2018-04-17T19:23:52.100Z,15.70
2018-04-17T19:26:19.604Z,15.60
2018-04-17T19:28:47.085Z,15.50
2018-04-17T19:31:15.370Z,15.20
2018-04-17T19:33:43.606Z,15.00
2018-04-17T19:36:11.117Z,15.00
2018-04-17T19:38:38.606Z,14.90
2018-04-17T19:41:06.107Z,14.80
2018-04-17T19:43:34.345Z,14.50
2018-04-17T19:46:01.861Z,14.50
2018-04-17T19:48:29.363Z,14.40
2018-04-17T19:50:56.971Z,14.20
2018-04-17T19:53:24.427Z,14.10
2018-04-17T19:55:52.719Z,13.90
2018-04-17T19:58:20.256Z,13.90
2018-04-17T20:00:48.504Z,13.70
2018-04-17T20:03:16.019Z,13.70
2018-04-17T20:05:44.343Z,13.50
2018-04-17T20:08:11.879Z,13.50
2018-04-17T20:10:39.387Z,13.40
2018-04-17T20:13:07.662Z,13.20
2018-04-17T20:15:35.903Z,13.10
2018-04-17T20:18:03.433Z,13.10
2018-04-17T20:20:30.963Z,13.00
2018-04-17T20:22:58.453Z,12.90
2018-04-17T20:25:25.939Z,12.90
2018-04-17T20:27:54.349Z,12.80
2018-04-17T20:30:22.610Z,12.60
2018-04-17T20:32:50.095Z,12.60
2018-04-17T20:35:17.611Z,12.60
2018-04-17T20:37:45.087Z,12.50
2018-04-17T20:40:12.612Z,12.40
2018-04-17T20:42:40.070Z,12.40
2018-04-17T20:45:07.610Z,12.30
2018-04-17T20:47:35.074Z,12.20
2018-04-17T20:50:02.660Z,12.10
2018-04-17T20:52:30.163Z,12.00
2018-04-17T20:54:57.668Z,11.90
2018-04-17T20:57:25.157Z,11.80
2018-04-17T20:59:53.442Z,11.70
2018-04-17T21:02:21.681Z,11.60
2018-04-17T21:04:49.153Z,11.60
2018-04-17T21:07:16.666Z,11.50
2018-04-17T21:09:44.133Z,11.50
2018-04-17T21:12:11.693Z,11.40
2018-04-17T21:14:39.165Z,11.30
2018-04-17T21:17:06.670Z,11.20
2018-04-17T21:19:34.932Z,11.10
2018-04-17T21:22:03.775Z,11.10
2018-04-17T21:24:31.240Z,11.00
2018-04-17T21:26:58.766Z,11.00
2018-04-17T21:29:26.255Z,10.90
2018-04-17T21:31:53.747Z,10.80
2018-04-17T21:34:21.244Z,10.80
2018-04-17T21:36:48.729Z,10.80
2018-04-17T21:39:16.244Z,10.70
2018-04-17T21:41:44.489Z,10.60
2018-04-17T21:44:11.988Z,10.60
2018-04-17T21:46:39.486Z,10.60
2018-04-17T21:49:07.019Z,10.50
2018-04-17T21:51:34.504Z,10.50
2018-04-17T21:54:02.002Z,10.40
2018-04-17T21:56:30.240Z,10.30
2018-04-17T21:58:57.757Z,10.30
2018-04-17T22:01:29.182Z,10.20
2018-04-17T22:03:57.486Z,10.20
2018-04-17T22:06:25.007Z,10.20
2018-04-17T22:08:52.544Z,10.20
2018-04-17T22:11:20.019Z,10.10
2018-04-17T22:13:47.507Z,10.10
2018-04-17T22:16:15.763Z,10.00
2018-04-17T22:18:44.015Z,9.90
2018-04-17T22:21:11.564Z,9.90
2018-04-17T22:23:39.090Z,9.80
2018-04-17T22:26:07.142Z,9.80
2018-04-17T22:28:35.373Z,9.60
2018-04-17T22:31:02.892Z,9.60
2018-04-17T22:33:30.387Z,9.50
2018-04-17T22:35:58.649Z,9.50
2018-04-17T22:38:26.117Z,9.40
2018-04-17T22:40:53.619Z,9.40
2018-04-17T22:43:21.860Z,9.40
2018-04-17T22:45:49.387Z,9.40
2018-04-17T22:48:16.877Z,9.40
2018-04-17T22:50:44.370Z,9.40
2018-04-17T22:53:12.627Z,9.40
2018-04-17T22:55:40.132Z,9.40
2018-04-17T22:58:07.665Z,9.30
2018-04-17T23:00:35.174Z,9.20
2018-04-17T23:03:02.650Z,9.20
2018-04-17T23:05:30.097Z,9.10
2018-04-17T23:07:57.591Z,9.00
2018-04-17T23:10:26.049Z,8.90
2018-04-17T23:12:53.550Z,8.90
2018-04-17T23:15:21.031Z,8.90
2018-04-17T23:17:48.528Z,8.80
2018-04-17T23:20:16.025Z,8.80
2018-04-17T23:22:43.522Z,8.70
2018-04-17T23:25:10.998Z,8.70
2018-04-17T23:27:38.488Z,8.70
2018-04-17T23:30:05.945Z,8.60
2018-04-17T23:32:33.447Z,8.60
2018-04-17T23:35:00.915Z,8.50
2018-04-17T23:37:29.187Z,8.50
2018-04-17T23:39:56.655Z,8.50
2018-04-17T23:42:24.157Z,8.40
2018-04-17T23:44:51.671Z,8.40
2018-04-17T23:47:19.135Z,8.30
2018-04-17T23:49:46.680Z,8.30
2018-04-17T23:52:14.158Z,8.20
2018-04-17T23:54:41.655Z,8.20
2018-04-17T23:57:09.130Z,8.10
2018-04-17T23:59:36.618Z,8.10
